sensor_id;sensor_type;location;lat;lon;timestamp;temperature;humidity
1297;DHT22;641;48.492;9.184;2023-06-26T00:01:26;19.30;56.60
1297;DHT22;641;48.492;9.184;2023-06-26T00:03:55;19.20;57.00
1297;DHT22;641;48.492;9.184;2023-06-26T00:06:20;19.20;56.70
1297;DHT22;641;48.492;9.184;2023-06-26T00:08:46;19.20;57.50
1297;DHT22;641;48.492;9.184;2023-06-26T00:11:11;19.10;56.90
1297;DHT22;641;48.492;9.184;2023-06-26T00:13:37;19.00;57.60
1297;DHT22;641;48.492;9.184;2023-06-26T00:16:02;19.10;57.70
1297;DHT22;641;48.492;9.184;2023-06-26T00:18:29;19.10;57.10
1297;DHT22;641;48.492;9.184;2023-06-26T00:20:54;18.90;57.20
1297;DHT22;641;48.492;9.184;2023-06-26T00:23:20;19.00;57.20
1297;DHT22;641;48.492;9.184;2023-06-26T00:25:46;18.70;58.00
1297;DHT22;641;48.492;9.184;2023-06-26T00:28:11;18.70;57.90
1297;DHT22;641;48.492;9.184;2023-06-26T00:30:37;18.60;58.40
1297;DHT22;641;48.492;9.184;2023-06-26T00:33:03;18.80;58.30
1297;DHT22;641;48.492;9.184;2023-06-26T00:35:28;18.70;58.40
1297;DHT22;641;48.492;9.184;2023-06-26T00:37:54;18.60;58.60
1297;DHT22;641;48.492;9.184;2023-06-26T00:40:19;18.70;59.10
1297;DHT22;641;48.492;9.184;2023-06-26T00:42:45;18.70;59.00
1297;DHT22;641;48.492;9.184;2023-06-26T00:45:11;18.60;57.40
1297;DHT22;641;48.492;9.184;2023-06-26T00:47:37;18.50;58.60
1297;DHT22;641;48.492;9.184;2023-06-26T00:50:03;18.50;59.20
1297;DHT22;641;48.492;9.184;2023-06-26T00:52:29;18.50;59.40
1297;DHT22;641;48.492;9.184;2023-06-26T00:54:55;18.50;60.40
1297;DHT22;641;48.492;9.184;2023-06-26T00:57:21;18.60;60.00
1297;DHT22;641;48.492;9.184;2023-06-26T00:59:48;18.50;60.90
1297;DHT22;641;48.492;9.184;2023-06-26T01:02:13;18.40;59.80
1297;DHT22;641;48.492;9.184;2023-06-26T01:04:46;18.30;60.20
1297;DHT22;641;48.492;9.184;2023-06-26T01:07:13;18.20;61.50
1297;DHT22;641;48.492;9.184;2023-06-26T01:09:40;18.20;62.20
1297;DHT22;641;48.492;9.184;2023-06-26T01:12:06;18.10;61.80
1297;DHT22;641;48.492;9.184;2023-06-26T01:14:34;18.20;62.60
1297;DHT22;641;48.492;9.184;2023-06-26T01:17:01;18.00;62.40
1297;DHT22;641;48.492;9.184;2023-06-26T01:19:29;18.10;63.30
1297;DHT22;641;48.492;9.184;2023-06-26T01:21:59;18.00;62.90
1297;DHT22;641;48.492;9.184;2023-06-26T01:24:32;18.10;64.50
1297;DHT22;641;48.492;9.184;2023-06-26T01:26:59;18.00;63.70
1297;DHT22;641;48.492;9.184;2023-06-26T01:29:26;17.90;64.20
1297;DHT22;641;48.492;9.184;2023-06-26T01:31:54;17.90;64.40
1297;DHT22;641;48.492;9.184;2023-06-26T01:34:19;17.90;64.70
1297;DHT22;641;48.492;9.184;2023-06-26T01:36:45;18.00;65.30
1297;DHT22;641;48.492;9.184;2023-06-26T01:39:14;17.90;64.40
1297;DHT22;641;48.492;9.184;2023-06-26T01:41:40;17.60;64.90
1297;DHT22;641;48.492;9.184;2023-06-26T01:47:01;17.70;66.50
1297;DHT22;641;48.492;9.184;2023-06-26T01:57:47;17.50;64.70
1297;DHT22;641;48.492;9.184;2023-06-26T02:00:15;17.50;65.40
1297;DHT22;641;48.492;9.184;2023-06-26T02:02:44;17.40;65.60
1297;DHT22;641;48.492;9.184;2023-06-26T02:05:09;17.30;65.60
1297;DHT22;641;48.492;9.184;2023-06-26T02:07:35;17.20;66.00
1297;DHT22;641;48.492;9.184;2023-06-26T02:10:02;17.30;66.10
1297;DHT22;641;48.492;9.184;2023-06-26T02:12:27;17.40;65.80
1297;DHT22;641;48.492;9.184;2023-06-26T02:14:53;17.40;66.40
1297;DHT22;641;48.492;9.184;2023-06-26T02:17:18;17.30;65.20
1297;DHT22;641;48.492;9.184;2023-06-26T02:19:44;17.30;65.50
1297;DHT22;641;48.492;9.184;2023-06-26T02:22:13;17.20;65.70
1297;DHT22;641;48.492;9.184;2023-06-26T02:24:40;17.00;66.70
1297;DHT22;641;48.492;9.184;2023-06-26T02:27:06;17.00;66.80
1297;DHT22;641;48.492;9.184;2023-06-26T02:29:31;17.10;67.70
1297;DHT22;641;48.492;9.184;2023-06-26T02:31:57;17.20;66.40
1297;DHT22;641;48.492;9.184;2023-06-26T02:34:22;17.20;66.90
1297;DHT22;641;48.492;9.184;2023-06-26T02:36:48;17.10;66.70
1297;DHT22;641;48.492;9.184;2023-06-26T02:39:13;17.00;66.90
1297;DHT22;641;48.492;9.184;2023-06-26T02:41:40;16.80;67.40
1297;DHT22;641;48.492;9.184;2023-06-26T02:44:05;16.90;68.10
1297;DHT22;641;48.492;9.184;2023-06-26T02:46:32;16.90;67.10
1297;DHT22;641;48.492;9.184;2023-06-26T02:48:58;16.90;68.10
1297;DHT22;641;48.492;9.184;2023-06-26T02:51:24;16.90;68.00
1297;DHT22;641;48.492;9.184;2023-06-26T02:53:49;16.80;66.80
1297;DHT22;641;48.492;9.184;2023-06-26T02:56:15;16.70;67.20
1297;DHT22;641;48.492;9.184;2023-06-26T02:58:40;16.70;67.20
1297;DHT22;641;48.492;9.184;2023-06-26T03:01:06;16.80;68.40
1297;DHT22;641;48.492;9.184;2023-06-26T03:03:32;16.80;67.40
1297;DHT22;641;48.492;9.184;2023-06-26T03:06:06;16.70;67.20
1297;DHT22;641;48.492;9.184;2023-06-26T03:08:33;16.70;68.80
1297;DHT22;641;48.492;9.184;2023-06-26T03:10:59;16.70;68.50
1297;DHT22;641;48.492;9.184;2023-06-26T03:13:24;16.80;68.80
1297;DHT22;641;48.492;9.184;2023-06-26T03:15:50;16.90;68.00
1297;DHT22;641;48.492;9.184;2023-06-26T03:18:15;16.80;67.80
1297;DHT22;641;48.492;9.184;2023-06-26T03:20:41;16.80;68.00
1297;DHT22;641;48.492;9.184;2023-06-26T03:23:06;16.80;68.50
1297;DHT22;641;48.492;9.184;2023-06-26T03:25:32;16.80;67.30
1297;DHT22;641;48.492;9.184;2023-06-26T03:27:57;16.50;66.80
1297;DHT22;641;48.492;9.184;2023-06-26T03:30:23;16.50;66.50
1297;DHT22;641;48.492;9.184;2023-06-26T03:32:49;16.60;67.50
1297;DHT22;641;48.492;9.184;2023-06-26T03:35:14;16.60;67.80
1297;DHT22;641;48.492;9.184;2023-06-26T03:37:40;16.60;68.10
1297;DHT22;641;48.492;9.184;2023-06-26T03:40:06;16.60;68.70
1297;DHT22;641;48.492;9.184;2023-06-26T03:42:32;16.60;68.60
1297;DHT22;641;48.492;9.184;2023-06-26T03:44:57;16.60;69.50
1297;DHT22;641;48.492;9.184;2023-06-26T03:47:23;16.70;68.30
1297;DHT22;641;48.492;9.184;2023-06-26T03:49:49;16.80;68.10
1297;DHT22;641;48.492;9.184;2023-06-26T03:52:14;17.00;68.00
1297;DHT22;641;48.492;9.184;2023-06-26T03:54:40;17.00;66.30
1297;DHT22;641;48.492;9.184;2023-06-26T03:57:05;16.90;65.70
1297;DHT22;641;48.492;9.184;2023-06-26T03:59:31;17.00;66.20
1297;DHT22;641;48.492;9.184;2023-06-26T04:01:56;17.20;66.60
1297;DHT22;641;48.492;9.184;2023-06-26T04:04:22;17.20;64.80
1297;DHT22;641;48.492;9.184;2023-06-26T04:06:47;17.20;65.50
1297;DHT22;641;48.492;9.184;2023-06-26T04:09:13;17.20;66.10
1297;DHT22;641;48.492;9.184;2023-06-26T04:11:39;17.20;65.60
1297;DHT22;641;48.492;9.184;2023-06-26T04:14:04;17.20;65.00
1297;DHT22;641;48.492;9.184;2023-06-26T04:16:30;17.20;65.50
1297;DHT22;641;48.492;9.184;2023-06-26T04:18:56;17.30;65.20
1297;DHT22;641;48.492;9.184;2023-06-26T04:21:22;17.20;64.90
1297;DHT22;641;48.492;9.184;2023-06-26T04:23:50;17.20;64.30
1297;DHT22;641;48.492;9.184;2023-06-26T04:26:16;17.00;64.30
1297;DHT22;641;48.492;9.184;2023-06-26T04:28:42;17.10;65.40
1297;DHT22;641;48.492;9.184;2023-06-26T04:31:07;17.20;66.50
1297;DHT22;641;48.492;9.184;2023-06-26T04:33:34;17.40;68.10
1297;DHT22;641;48.492;9.184;2023-06-26T04:36:02;17.40;66.20
1297;DHT22;641;48.492;9.184;2023-06-26T04:38:28;17.30;65.70
1297;DHT22;641;48.492;9.184;2023-06-26T04:40:54;17.30;64.50
1297;DHT22;641;48.492;9.184;2023-06-26T04:43:19;17.20;64.00
1297;DHT22;641;48.492;9.184;2023-06-26T04:45:45;17.20;64.50
1297;DHT22;641;48.492;9.184;2023-06-26T04:48:10;17.20;64.30
1297;DHT22;641;48.492;9.184;2023-06-26T04:50:36;17.20;64.30
1297;DHT22;641;48.492;9.184;2023-06-26T04:53:02;17.30;64.80
1297;DHT22;641;48.492;9.184;2023-06-26T04:55:28;17.50;65.30
1297;DHT22;641;48.492;9.184;2023-06-26T04:57:53;17.70;64.00
1297;DHT22;641;48.492;9.184;2023-06-26T05:00:19;17.80;63.60
1297;DHT22;641;48.492;9.184;2023-06-26T05:02:45;18.00;63.60
1297;DHT22;641;48.492;9.184;2023-06-26T05:05:10;18.20;64.00
1297;DHT22;641;48.492;9.184;2023-06-26T05:07:37;18.40;64.30
1297;DHT22;641;48.492;9.184;2023-06-26T05:10:03;18.50;63.30
1297;DHT22;641;48.492;9.184;2023-06-26T05:12:28;18.60;63.10
1297;DHT22;641;48.492;9.184;2023-06-26T05:14:54;18.70;62.20
1297;DHT22;641;48.492;9.184;2023-06-26T05:17:19;18.80;61.70
1297;DHT22;641;48.492;9.184;2023-06-26T05:19:45;18.90;61.00
1297;DHT22;641;48.492;9.184;2023-06-26T05:22:12;19.10;60.70
1297;DHT22;641;48.492;9.184;2023-06-26T05:24:39;19.10;60.30
1297;DHT22;641;48.492;9.184;2023-06-26T05:27:06;19.00;60.80
1297;DHT22;641;48.492;9.184;2023-06-26T05:29:32;18.80;62.50
1297;DHT22;641;48.492;9.184;2023-06-26T05:31:59;18.60;62.20
1297;DHT22;641;48.492;9.184;2023-06-26T05:34:25;18.50;62.10
1297;DHT22;641;48.492;9.184;2023-06-26T05:36:57;18.50;62.40
1297;DHT22;641;48.492;9.184;2023-06-26T05:39:23;18.60;62.60
1297;DHT22;641;48.492;9.184;2023-06-26T05:41:50;18.70;62.50
1297;DHT22;641;48.492;9.184;2023-06-26T05:44:15;18.80;62.50
1297;DHT22;641;48.492;9.184;2023-06-26T05:46:41;18.90;62.10
1297;DHT22;641;48.492;9.184;2023-06-26T05:49:07;19.10;61.70
1297;DHT22;641;48.492;9.184;2023-06-26T05:51:32;19.10;61.30
1297;DHT22;641;48.492;9.184;2023-06-26T05:53:58;19.20;61.20
1297;DHT22;641;48.492;9.184;2023-06-26T05:56:24;19.30;61.50
1297;DHT22;641;48.492;9.184;2023-06-26T05:58:50;19.40;61.10
1297;DHT22;641;48.492;9.184;2023-06-26T06:01:17;19.50;60.00
1297;DHT22;641;48.492;9.184;2023-06-26T06:03:42;19.60;59.80
1297;DHT22;641;48.492;9.184;2023-06-26T06:06:08;19.70;59.60
1297;DHT22;641;48.492;9.184;2023-06-26T06:08:33;19.80;59.40
1297;DHT22;641;48.492;9.184;2023-06-26T06:11:00;19.90;59.20
1297;DHT22;641;48.492;9.184;2023-06-26T06:13:26;20.00;59.30
1297;DHT22;641;48.492;9.184;2023-06-26T06:15:51;20.10;58.80
1297;DHT22;641;48.492;9.184;2023-06-26T06:18:17;20.30;58.80
1297;DHT22;641;48.492;9.184;2023-06-26T06:20:42;20.40;58.40
1297;DHT22;641;48.492;9.184;2023-06-26T06:23:08;20.50;58.00
1297;DHT22;641;48.492;9.184;2023-06-26T06:25:33;20.70;58.10
1297;DHT22;641;48.492;9.184;2023-06-26T06:27:59;20.80;58.00
1297;DHT22;641;48.492;9.184;2023-06-26T06:30:25;20.90;58.10
1297;DHT22;641;48.492;9.184;2023-06-26T06:32:50;21.00;58.60
1297;DHT22;641;48.492;9.184;2023-06-26T06:35:18;21.20;57.90
1297;DHT22;641;48.492;9.184;2023-06-26T06:37:44;21.30;58.00
1297;DHT22;641;48.492;9.184;2023-06-26T06:40:10;21.40;57.80
1297;DHT22;641;48.492;9.184;2023-06-26T06:42:36;21.50;56.90
1297;DHT22;641;48.492;9.184;2023-06-26T06:45:02;21.70;57.30
1297;DHT22;641;48.492;9.184;2023-06-26T06:47:28;21.90;56.50
1297;DHT22;641;48.492;9.184;2023-06-26T06:49:53;22.00;55.90
1297;DHT22;641;48.492;9.184;2023-06-26T06:52:19;22.20;55.90
1297;DHT22;641;48.492;9.184;2023-06-26T06:54:53;22.30;55.60
1297;DHT22;641;48.492;9.184;2023-06-26T06:57:19;22.50;55.30
1297;DHT22;641;48.492;9.184;2023-06-26T06:59:46;22.60;55.20
1297;DHT22;641;48.492;9.184;2023-06-26T07:02:13;22.80;55.00
1297;DHT22;641;48.492;9.184;2023-06-26T07:04:38;23.00;54.40
1297;DHT22;641;48.492;9.184;2023-06-26T07:07:04;23.10;54.90
1297;DHT22;641;48.492;9.184;2023-06-26T07:09:30;23.30;54.70
1297;DHT22;641;48.492;9.184;2023-06-26T07:11:55;23.60;53.40
1297;DHT22;641;48.492;9.184;2023-06-26T07:14:21;24.00;51.20
1297;DHT22;641;48.492;9.184;2023-06-26T07:16:46;24.10;50.40
1297;DHT22;641;48.492;9.184;2023-06-26T07:19:12;24.30;49.60
1297;DHT22;641;48.492;9.184;2023-06-26T07:21:37;24.50;49.10
1297;DHT22;641;48.492;9.184;2023-06-26T07:24:03;24.60;48.90
1297;DHT22;641;48.492;9.184;2023-06-26T07:26:29;24.70;48.70
1297;DHT22;641;48.492;9.184;2023-06-26T07:28:54;24.90;48.10
1297;DHT22;641;48.492;9.184;2023-06-26T07:31:22;25.10;48.40
1297;DHT22;641;48.492;9.184;2023-06-26T07:33:47;25.10;47.60
1297;DHT22;641;48.492;9.184;2023-06-26T07:36:13;25.30;47.30
1297;DHT22;641;48.492;9.184;2023-06-26T07:38:39;25.30;46.70
1297;DHT22;641;48.492;9.184;2023-06-26T07:41:04;25.50;47.60
1297;DHT22;641;48.492;9.184;2023-06-26T07:43:30;25.60;45.80
1297;DHT22;641;48.492;9.184;2023-06-26T07:45:56;25.70;46.00
1297;DHT22;641;48.492;9.184;2023-06-26T07:48:24;25.80;46.20
1297;DHT22;641;48.492;9.184;2023-06-26T07:50:50;25.90;45.90
1297;DHT22;641;48.492;9.184;2023-06-26T07:53:15;26.00;45.00
1297;DHT22;641;48.492;9.184;2023-06-26T07:55:41;26.20;44.00
1297;DHT22;641;48.492;9.184;2023-06-26T07:58:07;26.20;44.20
1297;DHT22;641;48.492;9.184;2023-06-26T08:00:33;26.30;44.70
1297;DHT22;641;48.492;9.184;2023-06-26T08:02:59;26.40;43.70
1297;DHT22;641;48.492;9.184;2023-06-26T08:05:24;26.50;43.00
1297;DHT22;641;48.492;9.184;2023-06-26T08:07:50;26.60;43.70
1297;DHT22;641;48.492;9.184;2023-06-26T08:10:15;26.60;43.20
1297;DHT22;641;48.492;9.184;2023-06-26T08:12:42;26.80;43.30
1297;DHT22;641;48.492;9.184;2023-06-26T08:15:13;26.60;43.10
1297;DHT22;641;48.492;9.184;2023-06-26T08:17:38;26.80;43.90
1297;DHT22;641;48.492;9.184;2023-06-26T08:20:05;26.90;42.90
1297;DHT22;641;48.492;9.184;2023-06-26T08:22:33;27.00;42.60
1297;DHT22;641;48.492;9.184;2023-06-26T08:24:59;27.00;42.20
1297;DHT22;641;48.492;9.184;2023-06-26T08:27:25;27.00;42.30
1297;DHT22;641;48.492;9.184;2023-06-26T08:29:50;27.20;42.30
1297;DHT22;641;48.492;9.184;2023-06-26T08:32:16;27.10;41.10
1297;DHT22;641;48.492;9.184;2023-06-26T08:34:41;27.20;42.10
1297;DHT22;641;48.492;9.184;2023-06-26T08:37:07;27.40;41.40
1297;DHT22;641;48.492;9.184;2023-06-26T08:39:34;27.50;42.00
1297;DHT22;641;48.492;9.184;2023-06-26T08:42:00;27.70;42.10
1297;DHT22;641;48.492;9.184;2023-06-26T08:44:25;27.70;41.50
1297;DHT22;641;48.492;9.184;2023-06-26T08:46:51;27.80;41.60
1297;DHT22;641;48.492;9.184;2023-06-26T08:49:50;28.00;42.20
1297;DHT22;641;48.492;9.184;2023-06-26T08:52:23;27.90;40.20
1297;DHT22;641;48.492;9.184;2023-06-26T08:54:54;27.90;39.90
1297;DHT22;641;48.492;9.184;2023-06-26T08:57:23;27.90;40.60
1297;DHT22;641;48.492;9.184;2023-06-26T08:59:49;28.00;40.60
1297;DHT22;641;48.492;9.184;2023-06-26T09:02:15;28.00;39.40
1297;DHT22;641;48.492;9.184;2023-06-26T09:04:40;28.00;39.60
1297;DHT22;641;48.492;9.184;2023-06-26T09:07:07;28.00;39.40
1297;DHT22;641;48.492;9.184;2023-06-26T09:09:33;28.10;39.80
1297;DHT22;641;48.492;9.184;2023-06-26T09:11:58;28.20;38.90
1297;DHT22;641;48.492;9.184;2023-06-26T09:14:24;28.30;39.60
1297;DHT22;641;48.492;9.184;2023-06-26T09:16:50;28.40;39.40
1297;DHT22;641;48.492;9.184;2023-06-26T09:19:16;28.50;38.30
1297;DHT22;641;48.492;9.184;2023-06-26T09:21:42;28.60;39.20
1297;DHT22;641;48.492;9.184;2023-06-26T09:24:09;28.70;39.10
1297;DHT22;641;48.492;9.184;2023-06-26T09:26:39;28.50;37.80
1297;DHT22;641;48.492;9.184;2023-06-26T09:29:06;28.60;39.10
1297;DHT22;641;48.492;9.184;2023-06-26T09:31:37;28.70;37.80
1297;DHT22;641;48.492;9.184;2023-06-26T09:34:03;28.60;38.20
1297;DHT22;641;48.492;9.184;2023-06-26T09:36:30;28.90;39.20
1297;DHT22;641;48.492;9.184;2023-06-26T09:39:06;29.10;37.40
1297;DHT22;641;48.492;9.184;2023-06-26T09:41:36;29.10;38.60
1297;DHT22;641;48.492;9.184;2023-06-26T09:44:03;29.30;37.20
1297;DHT22;641;48.492;9.184;2023-06-26T09:46:30;29.10;36.00
1297;DHT22;641;48.492;9.184;2023-06-26T09:49:07;29.10;36.20
1297;DHT22;641;48.492;9.184;2023-06-26T09:51:34;29.10;36.60
1297;DHT22;641;48.492;9.184;2023-06-26T09:54:01;29.30;36.50
1297;DHT22;641;48.492;9.184;2023-06-26T09:56:27;29.10;36.30
1297;DHT22;641;48.492;9.184;2023-06-26T09:58:57;28.90;36.90
1297;DHT22;641;48.492;9.184;2023-06-26T10:01:24;28.90;37.20
1297;DHT22;641;48.492;9.184;2023-06-26T10:03:49;29.10;36.70
1297;DHT22;641;48.492;9.184;2023-06-26T10:06:19;29.50;36.60
1297;DHT22;641;48.492;9.184;2023-06-26T10:08:45;29.80;37.40
1297;DHT22;641;48.492;9.184;2023-06-26T10:11:16;30.20;35.90
1297;DHT22;641;48.492;9.184;2023-06-26T10:13:43;30.20;35.90
1297;DHT22;641;48.492;9.184;2023-06-26T10:16:12;30.30;35.40
1297;DHT22;641;48.492;9.184;2023-06-26T10:18:39;30.00;35.40
1297;DHT22;641;48.492;9.184;2023-06-26T10:21:06;29.70;35.20
1297;DHT22;641;48.492;9.184;2023-06-26T10:23:35;29.60;36.10
1297;DHT22;641;48.492;9.184;2023-06-26T10:26:02;29.60;36.30
1297;DHT22;641;48.492;9.184;2023-06-26T10:28:29;29.80;36.50
1297;DHT22;641;48.492;9.184;2023-06-26T10:30:58;29.80;35.40
1297;DHT22;641;48.492;9.184;2023-06-26T10:33:24;29.80;36.20
1297;DHT22;641;48.492;9.184;2023-06-26T10:35:50;29.80;35.90
1297;DHT22;641;48.492;9.184;2023-06-26T10:38:16;30.00;35.30
1297;DHT22;641;48.492;9.184;2023-06-26T10:40:48;30.30;35.00
1297;DHT22;641;48.492;9.184;2023-06-26T10:43:17;30.40;32.40
1297;DHT22;641;48.492;9.184;2023-06-26T10:45:48;30.10;32.80
1297;DHT22;641;48.492;9.184;2023-06-26T10:48:19;30.30;34.30
1297;DHT22;641;48.492;9.184;2023-06-26T10:50:47;30.50;33.20
1297;DHT22;641;48.492;9.184;2023-06-26T10:55:57;30.70;33.20
1297;DHT22;641;48.492;9.184;2023-06-26T10:58:34;30.60;33.70
1297;DHT22;641;48.492;9.184;2023-06-26T11:03:38;30.20;33.70
1297;DHT22;641;48.492;9.184;2023-06-26T11:06:15;30.40;34.40
1297;DHT22;641;48.492;9.184;2023-06-26T11:08:50;30.80;34.10
1297;DHT22;641;48.492;9.184;2023-06-26T11:11:17;31.00;34.20
1297;DHT22;641;48.492;9.184;2023-06-26T11:13:45;30.60;34.20
1297;DHT22;641;48.492;9.184;2023-06-26T11:16:12;30.40;34.70
1297;DHT22;641;48.492;9.184;2023-06-26T11:18:38;30.30;35.00
1297;DHT22;641;48.492;9.184;2023-06-26T11:23:33;29.60;36.20
1297;DHT22;641;48.492;9.184;2023-06-26T11:26:16;29.50;37.10
1297;DHT22;641;48.492;9.184;2023-06-26T11:31:28;30.00;36.90
1297;DHT22;641;48.492;9.184;2023-06-26T11:34:01;29.80;36.60
1297;DHT22;641;48.492;9.184;2023-06-26T11:36:28;30.10;37.20
1297;DHT22;641;48.492;9.184;2023-06-26T11:38:58;30.20;35.90
1297;DHT22;641;48.492;9.184;2023-06-26T11:41:32;30.10;36.50
1297;DHT22;641;48.492;9.184;2023-06-26T11:44:05;30.10;37.10
1297;DHT22;641;48.492;9.184;2023-06-26T11:46:31;29.90;37.30
1297;DHT22;641;48.492;9.184;2023-06-26T11:48:57;29.80;38.30
1297;DHT22;641;48.492;9.184;2023-06-26T11:51:23;30.00;38.20
1297;DHT22;641;48.492;9.184;2023-06-26T11:53:51;30.10;39.00
1297;DHT22;641;48.492;9.184;2023-06-26T11:56:18;30.10;38.10
1297;DHT22;641;48.492;9.184;2023-06-26T11:59:03;30.20;38.20
1297;DHT22;641;48.492;9.184;2023-06-26T12:04:00;30.20;37.60
1297;DHT22;641;48.492;9.184;2023-06-26T12:06:27;30.20;37.90
1297;DHT22;641;48.492;9.184;2023-06-26T12:08:54;30.00;38.20
1297;DHT22;641;48.492;9.184;2023-06-26T12:11:21;29.90;38.40
1297;DHT22;641;48.492;9.184;2023-06-26T12:13:48;29.70;38.10
1297;DHT22;641;48.492;9.184;2023-06-26T12:16:14;29.80;38.60
1297;DHT22;641;48.492;9.184;2023-06-26T12:18:40;29.90;38.30
1297;DHT22;641;48.492;9.184;2023-06-26T12:21:06;30.00;38.80
1297;DHT22;641;48.492;9.184;2023-06-26T12:23:41;29.90;37.70
1297;DHT22;641;48.492;9.184;2023-06-26T12:26:20;30.20;38.40
1297;DHT22;641;48.492;9.184;2023-06-26T12:28:46;30.20;38.40
1297;DHT22;641;48.492;9.184;2023-06-26T12:31:13;30.30;38.20
1297;DHT22;641;48.492;9.184;2023-06-26T12:33:39;30.50;37.70
1297;DHT22;641;48.492;9.184;2023-06-26T12:36:05;30.60;37.80
1297;DHT22;641;48.492;9.184;2023-06-26T12:38:35;30.40;37.40
1297;DHT22;641;48.492;9.184;2023-06-26T12:41:01;30.40;38.20
1297;DHT22;641;48.492;9.184;2023-06-26T12:43:27;30.10;36.90
1297;DHT22;641;48.492;9.184;2023-06-26T12:45:55;29.70;38.00
1297;DHT22;641;48.492;9.184;2023-06-26T12:48:35;29.60;38.50
1297;DHT22;641;48.492;9.184;2023-06-26T12:51:10;29.80;38.40
1297;DHT22;641;48.492;9.184;2023-06-26T12:53:37;29.70;38.30
1297;DHT22;641;48.492;9.184;2023-06-26T12:56:05;29.70;38.30
1297;DHT22;641;48.492;9.184;2023-06-26T12:58:31;29.70;38.90
1297;DHT22;641;48.492;9.184;2023-06-26T13:00:57;29.80;39.50
1297;DHT22;641;48.492;9.184;2023-06-26T13:03:23;29.90;39.40
1297;DHT22;641;48.492;9.184;2023-06-26T13:05:49;29.90;39.80
1297;DHT22;641;48.492;9.184;2023-06-26T13:08:14;29.90;39.40
1297;DHT22;641;48.492;9.184;2023-06-26T13:10:42;29.80;39.10
1297;DHT22;641;48.492;9.184;2023-06-26T13:13:09;29.70;39.20
1297;DHT22;641;48.492;9.184;2023-06-26T13:15:35;29.90;40.40
1297;DHT22;641;48.492;9.184;2023-06-26T13:18:00;29.90;40.60
1297;DHT22;641;48.492;9.184;2023-06-26T13:20:26;29.80;40.40
1297;DHT22;641;48.492;9.184;2023-06-26T13:22:52;30.00;40.30
1297;DHT22;641;48.492;9.184;2023-06-26T13:25:18;30.00;39.90
1297;DHT22;641;48.492;9.184;2023-06-26T13:27:44;29.90;40.30
1297;DHT22;641;48.492;9.184;2023-06-26T13:30:10;29.90;40.30
1297;DHT22;641;48.492;9.184;2023-06-26T13:32:35;30.00;41.00
1297;DHT22;641;48.492;9.184;2023-06-26T13:35:01;29.90;40.30
1297;DHT22;641;48.492;9.184;2023-06-26T13:37:27;30.00;40.30
1297;DHT22;641;48.492;9.184;2023-06-26T13:39:52;29.80;40.10
1297;DHT22;641;48.492;9.184;2023-06-26T13:42:18;29.80;41.10
1297;DHT22;641;48.492;9.184;2023-06-26T13:44:43;29.70;41.30
1297;DHT22;641;48.492;9.184;2023-06-26T13:47:13;29.80;41.10
1297;DHT22;641;48.492;9.184;2023-06-26T13:49:39;29.70;40.90
1297;DHT22;641;48.492;9.184;2023-06-26T13:52:05;29.70;41.10
1297;DHT22;641;48.492;9.184;2023-06-26T13:54:35;29.90;41.30
1297;DHT22;641;48.492;9.184;2023-06-26T13:57:02;29.80;40.50
1297;DHT22;641;48.492;9.184;2023-06-26T13:59:30;29.90;40.00
1297;DHT22;641;48.492;9.184;2023-06-26T14:01:56;29.90;40.20
1297;DHT22;641;48.492;9.184;2023-06-26T14:04:21;29.60;41.10
1297;DHT22;641;48.492;9.184;2023-06-26T14:06:47;29.50;41.00
1297;DHT22;641;48.492;9.184;2023-06-26T14:09:13;29.50;41.90
1297;DHT22;641;48.492;9.184;2023-06-26T14:11:39;29.50;41.30
1297;DHT22;641;48.492;9.184;2023-06-26T14:14:04;29.30;40.90
1297;DHT22;641;48.492;9.184;2023-06-26T14:16:30;29.60;41.10
1297;DHT22;641;48.492;9.184;2023-06-26T14:18:56;29.40;40.70
1297;DHT22;641;48.492;9.184;2023-06-26T14:21:21;29.50;40.40
1297;DHT22;641;48.492;9.184;2023-06-26T14:23:47;29.50;39.80
1297;DHT22;641;48.492;9.184;2023-06-26T14:26:12;29.40;40.70
1297;DHT22;641;48.492;9.184;2023-06-26T14:28:38;29.30;40.10
1297;DHT22;641;48.492;9.184;2023-06-26T14:31:05;29.30;40.70
1297;DHT22;641;48.492;9.184;2023-06-26T14:33:30;29.20;40.60
1297;DHT22;641;48.492;9.184;2023-06-26T14:35:56;29.20;40.70
1297;DHT22;641;48.492;9.184;2023-06-26T14:38:22;29.10;40.20
1297;DHT22;641;48.492;9.184;2023-06-26T14:40:47;29.10;40.70
1297;DHT22;641;48.492;9.184;2023-06-26T14:43:13;29.30;40.60
1297;DHT22;641;48.492;9.184;2023-06-26T14:45:38;29.10;39.90
1297;DHT22;641;48.492;9.184;2023-06-26T14:48:04;29.10;40.10
1297;DHT22;641;48.492;9.184;2023-06-26T14:50:30;29.10;41.30
1297;DHT22;641;48.492;9.184;2023-06-26T14:52:55;29.40;39.60
1297;DHT22;641;48.492;9.184;2023-06-26T14:55:21;29.40;38.60
1297;DHT22;641;48.492;9.184;2023-06-26T14:57:46;29.50;38.80
1297;DHT22;641;48.492;9.184;2023-06-26T15:00:12;29.50;38.30
1297;DHT22;641;48.492;9.184;2023-06-26T15:02:38;29.60;39.40
1297;DHT22;641;48.492;9.184;2023-06-26T15:05:04;29.90;39.00
1297;DHT22;641;48.492;9.184;2023-06-26T15:07:30;29.80;38.40
1297;DHT22;641;48.492;9.184;2023-06-26T15:09:55;29.40;38.00
1297;DHT22;641;48.492;9.184;2023-06-26T15:12:21;29.60;38.40
1297;DHT22;641;48.492;9.184;2023-06-26T15:14:48;30.20;37.80
1297;DHT22;641;48.492;9.184;2023-06-26T15:17:14;31.30;36.90
1297;DHT22;641;48.492;9.184;2023-06-26T15:19:40;32.00;34.40
1297;DHT22;641;48.492;9.184;2023-06-26T15:22:06;31.20;33.20
1297;DHT22;641;48.492;9.184;2023-06-26T15:24:32;30.70;35.00
1297;DHT22;641;48.492;9.184;2023-06-26T15:26:57;31.40;34.30
1297;DHT22;641;48.492;9.184;2023-06-26T15:29:23;32.00;33.60
1297;DHT22;641;48.492;9.184;2023-06-26T15:31:49;32.30;33.00
1297;DHT22;641;48.492;9.184;2023-06-26T15:34:14;32.60;32.20
1297;DHT22;641;48.492;9.184;2023-06-26T15:36:40;31.10;33.40
1297;DHT22;641;48.492;9.184;2023-06-26T15:39:05;30.90;34.00
1297;DHT22;641;48.492;9.184;2023-06-26T15:41:31;30.90;34.50
1297;DHT22;641;48.492;9.184;2023-06-26T15:43:56;31.50;34.60
1297;DHT22;641;48.492;9.184;2023-06-26T15:46:22;30.80;34.00
1297;DHT22;641;48.492;9.184;2023-06-26T15:48:48;30.70;34.50
1297;DHT22;641;48.492;9.184;2023-06-26T15:51:14;30.30;34.70
1297;DHT22;641;48.492;9.184;2023-06-26T15:53:43;29.80;35.40
1297;DHT22;641;48.492;9.184;2023-06-26T15:56:10;30.00;36.50
1297;DHT22;641;48.492;9.184;2023-06-26T15:58:36;30.70;35.60
1297;DHT22;641;48.492;9.184;2023-06-26T16:01:07;30.60;35.00
1297;DHT22;641;48.492;9.184;2023-06-26T16:03:32;30.20;35.00
1297;DHT22;641;48.492;9.184;2023-06-26T16:05:58;29.90;35.20
1297;DHT22;641;48.492;9.184;2023-06-26T16:08:24;30.10;36.50
1297;DHT22;641;48.492;9.184;2023-06-26T16:10:49;30.20;35.40
1297;DHT22;641;48.492;9.184;2023-06-26T16:13:15;30.10;35.40
1297;DHT22;641;48.492;9.184;2023-06-26T16:15:43;29.90;36.40
1297;DHT22;641;48.492;9.184;2023-06-26T16:18:09;29.40;37.00
1297;DHT22;641;48.492;9.184;2023-06-26T16:20:35;29.70;37.10
1297;DHT22;641;48.492;9.184;2023-06-26T16:23:00;29.20;37.00
1297;DHT22;641;48.492;9.184;2023-06-26T16:25:26;28.70;37.90
1297;DHT22;641;48.492;9.184;2023-06-26T16:27:51;28.00;39.00
1297;DHT22;641;48.492;9.184;2023-06-26T16:30:17;27.90;39.60
1297;DHT22;641;48.492;9.184;2023-06-26T16:32:43;28.00;39.40
1297;DHT22;641;48.492;9.184;2023-06-26T16:35:09;27.60;39.90
1297;DHT22;641;48.492;9.184;2023-06-26T16:37:34;27.30;40.70